Time;durP1;ratioP1;P1;durP2;ratioP2;P2;SDS_P1;SDS_P2;PMS_P1;PMS_P2;Temp;Humidity;BMP_temperature;BMP_pressure;BME280_temperature;BME280_humidity;BME280_pressure;Samples;Min_cycle;Max_cycle;Signal;HPM_P1;HPM_P2
2024/02/26 00:01:18;;;;;;;3.50;3.30;;;5.60;99.90;;;;;;5038089;28;20299;-72
2024/02/26 00:03:47;;;;;;;3.95;3.65;;;5.60;99.90;;;;;;5038103;28;20313;-73
2024/02/26 00:06:14;;;;;;;3.70;3.50;;;5.60;99.90;;;;;;5038848;28;20789;-71
2024/02/26 00:08:41;;;;;;;3.95;3.65;;;5.60;99.90;;;;;;5035781;28;20510;-71
2024/02/26 00:11:08;;;;;;;4.00;3.70;;;5.60;99.90;;;;;;5038816;28;20296;-74
2024/02/26 00:13:35;;;;;;;3.88;3.58;;;5.60;99.90;;;;;;5035944;28;20219;-70
2024/02/26 00:16:03;;;;;;;3.70;3.50;;;5.50;99.90;;;;;;5038222;28;20312;-71
2024/02/26 00:18:30;;;;;;;4.18;3.70;;;5.60;99.90;;;;;;5037128;28;20710;-71
2024/02/26 00:20:57;;;;;;;4.07;3.78;;;5.50;99.90;;;;;;5037388;28;20293;-71
2024/02/26 00:23:24;;;;;;;4.30;3.90;;;5.60;99.90;;;;;;5037396;28;20222;-75
2024/02/26 00:25:51;;;;;;;4.32;4.03;;;5.50;99.90;;;;;;5036131;28;20249;-71
2024/02/26 00:28:19;;;;;;;4.43;4.10;;;5.50;99.90;;;;;;5036719;28;20302;-72
2024/02/26 00:30:46;;;;;;;4.30;3.90;;;5.40;99.90;;;;;;5037454;28;20361;-73
2024/02/26 00:33:16;;;;;;;4.07;3.78;;;5.30;99.90;;;;;;5036968;28;20373;-71
2024/02/26 00:35:43;;;;;;;3.95;3.65;;;5.30;99.90;;;;;;5037977;28;20219;-71
2024/02/26 00:38:10;;;;;;;4.10;3.80;;;5.30;99.90;;;;;;5034493;28;20234;-72
2024/02/26 00:40:37;;;;;;;4.05;3.83;;;5.30;99.90;;;;;;5037435;28;20405;-71
2024/02/26 00:43:05;;;;;;;4.38;4.10;;;5.30;99.90;;;;;;5034345;28;20251;-71
2024/02/26 00:45:32;;;;;;;4.45;4.15;;;5.40;99.90;;;;;;5036150;28;20311;-72
2024/02/26 00:48:01;;;;;;;3.97;3.67;;;5.40;99.90;;;;;;5037487;28;20226;-71
2024/02/26 00:50:29;;;;;;;4.68;4.38;;;5.30;99.90;;;;;;5038545;28;20206;-71
2024/02/26 00:52:56;;;;;;;4.70;4.40;;;5.20;99.90;;;;;;5037319;28;20328;-72
2024/02/26 00:55:23;;;;;;;4.35;4.05;;;5.20;99.90;;;;;;5038127;28;20223;-72
2024/02/26 00:57:50;;;;;;;4.65;4.35;;;5.30;99.90;;;;;;5035587;28;20310;-73
2024/02/26 01:00:17;;;;;;;4.15;3.85;;;5.30;99.90;;;;;;5036822;28;20294;-71
2024/02/26 01:02:46;;;;;;;4.45;4.15;;;5.30;99.90;;;;;;5034622;28;20305;-71
2024/02/26 01:05:13;;;;;;;5.15;4.75;;;5.30;99.90;;;;;;5037715;28;20223;-72
2024/02/26 01:07:42;;;;;;;4.85;4.45;;;5.30;99.90;;;;;;5035993;28;20313;-72
2024/02/26 01:10:09;;;;;;;5.70;5.20;;;5.20;99.90;;;;;;5037323;28;20343;-74
2024/02/26 01:12:36;;;;;;;5.40;4.90;;;5.10;99.90;;;;;;5037088;28;20311;-71
2024/02/26 01:15:04;;;;;;;4.72;4.32;;;5.00;99.90;;;;;;5036754;28;20264;-71
2024/02/26 01:17:31;;;;;;;4.90;4.53;;;4.90;99.90;;;;;;5038927;28;20338;-71
2024/02/26 01:19:58;;;;;;;4.95;4.55;;;4.90;99.90;;;;;;5036800;28;20301;-71
2024/02/26 01:22:25;;;;;;;5.22;4.80;;;4.90;99.90;;;;;;5038159;28;20313;-72
2024/02/26 01:24:53;;;;;;;4.93;4.60;;;4.90;99.90;;;;;;5038870;28;20354;-71
2024/02/26 01:27:20;;;;;;;4.75;4.45;;;5.00;99.90;;;;;;5039190;28;20301;-70
2024/02/26 01:29:47;;;;;;;4.93;4.63;;;5.00;99.90;;;;;;5039208;28;20250;-71
2024/02/26 01:32:14;;;;;;;4.78;4.38;;;5.10;99.90;;;;;;5038815;28;20242;-71
2024/02/26 01:34:41;;;;;;;5.30;4.90;;;5.10;99.90;;;;;;5039831;28;20260;-74
2024/02/26 01:37:07;;;;;;;5.03;4.63;;;5.10;99.90;;;;;;5039405;28;20219;-73
2024/02/26 01:39:34;;;;;;;4.80;4.40;;;5.10;99.90;;;;;;5038088;28;20253;-72
2024/02/26 01:42:03;;;;;;;4.70;4.40;;;5.20;99.90;;;;;;5037487;28;20326;-71
2024/02/26 01:44:30;;;;;;;4.78;4.47;;;5.20;99.90;;;;;;5039939;28;20226;-72
2024/02/26 01:46:57;;;;;;;4.97;4.57;;;5.10;99.90;;;;;;5038980;28;20234;-73
2024/02/26 01:49:24;;;;;;;4.72;4.43;;;5.00;99.90;;;;;;5040623;28;21079;-71
2024/02/26 01:51:51;;;;;;;4.70;4.40;;;5.10;99.90;;;;;;5035294;28;20647;-72
2024/02/26 01:54:19;;;;;;;4.80;4.40;;;5.00;99.90;;;;;;5040114;28;20246;-72
2024/02/26 01:56:46;;;;;;;4.78;4.38;;;5.00;99.90;;;;;;5037584;28;20235;-73
2024/02/26 01:59:15;;;;;;;4.40;4.10;;;5.10;99.90;;;;;;5043155;28;20920;-74
2024/02/26 02:01:45;;;;;;;3.95;3.65;;;5.10;99.90;;;;;;5040544;28;20249;-71
2024/02/26 02:04:13;;;;;;;4.15;3.85;;;5.10;99.90;;;;;;5043618;28;20234;-72
2024/02/26 02:06:41;;;;;;;4.43;4.13;;;5.10;99.90;;;;;;5044238;28;20268;-72
2024/02/26 02:09:09;;;;;;;4.40;4.10;;;5.10;99.90;;;;;;5042057;28;20258;-71
2024/02/26 02:11:36;;;;;;;3.78;3.58;;;5.20;99.90;;;;;;5037319;28;20242;-71
2024/02/26 02:14:03;;;;;;;4.53;4.22;;;5.10;99.90;;;;;;5041054;28;20302;-71
2024/02/26 02:16:31;;;;;;;3.65;3.45;;;5.10;99.90;;;;;;5043662;28;20292;-70
2024/02/26 02:18:59;;;;;;;4.60;4.20;;;5.20;99.90;;;;;;5038735;28;20311;-71
2024/02/26 02:21:28;;;;;;;4.50;4.20;;;5.20;99.90;;;;;;5043181;28;20304;-71
2024/02/26 02:23:54;;;;;;;4.40;4.10;;;5.20;99.90;;;;;;5042351;28;20297;-71
2024/02/26 02:26:21;;;;;;;4.45;4.15;;;5.30;99.90;;;;;;5042679;28;20297;-72
2024/02/26 02:28:49;;;;;;;4.05;3.75;;;5.30;99.90;;;;;;5039792;28;21970;-72
2024/02/26 02:31:16;;;;;;;4.18;3.85;;;5.30;99.90;;;;;;5039271;28;20226;-71
2024/02/26 02:33:44;;;;;;;4.32;4.03;;;5.30;99.90;;;;;;5041416;28;20211;-71
2024/02/26 02:36:11;;;;;;;4.60;4.30;;;5.30;99.90;;;;;;5042958;28;20283;-70
2024/02/26 02:38:49;;;;;;;4.10;3.85;;;5.30;99.90;;;;;;5041419;28;20253;-72
2024/02/26 02:41:16;;;;;;;4.53;4.13;;;5.30;99.90;;;;;;5040617;28;20299;-71
2024/02/26 02:43:43;;;;;;;3.60;3.40;;;5.20;99.90;;;;;;5039723;28;20305;-70
2024/02/26 02:46:11;;;;;;;3.90;3.70;;;5.20;99.90;;;;;;5042126;28;20319;-71
2024/02/26 02:48:38;;;;;;;4.00;3.60;;;5.20;99.90;;;;;;5042312;28;20231;-71
2024/02/26 02:51:05;;;;;;;3.80;3.60;;;5.20;99.90;;;;;;5039865;28;20231;-71
2024/02/26 02:53:32;;;;;;;4.30;4.00;;;5.20;99.90;;;;;;5041075;28;20301;-71
2024/02/26 02:56:01;;;;;;;4.40;4.10;;;5.20;99.90;;;;;;5042043;28;20251;-71
2024/02/26 02:58:28;;;;;;;4.65;4.32;;;5.30;99.90;;;;;;5041398;28;20315;-71
2024/02/26 03:00:55;;;;;;;3.85;3.55;;;5.30;99.90;;;;;;5037580;28;20234;-70
2024/02/26 03:03:24;;;;;;;3.72;3.45;;;5.30;99.90;;;;;;5040988;28;20234;-71
2024/02/26 03:05:51;;;;;;;4.00;3.72;;;5.40;99.90;;;;;;5040287;28;20221;-70
2024/02/26 03:08:19;;;;;;;3.65;3.35;;;5.40;99.90;;;;;;5040323;28;20684;-71
2024/02/26 03:10:46;;;;;;;4.05;3.78;;;5.30;99.90;;;;;;5040126;28;20303;-72
2024/02/26 03:13:14;;;;;;;3.88;3.65;;;5.30;99.90;;;;;;5041466;28;20230;-71
2024/02/26 03:15:41;;;;;;;4.00;3.70;;;5.40;99.90;;;;;;5042387;28;20214;-73
2024/02/26 03:18:08;;;;;;;3.65;3.45;;;5.40;99.90;;;;;;5041039;28;20289;-72
2024/02/26 03:20:35;;;;;;;3.92;3.65;;;5.40;99.90;;;;;;5041371;28;20223;-71
2024/02/26 03:23:02;;;;;;;4.13;3.92;;;5.40;99.90;;;;;;5041000;28;20223;-71
2024/02/26 03:25:29;;;;;;;4.00;3.70;;;5.40;99.90;;;;;;5041631;28;20226;-71
2024/02/26 03:27:56;;;;;;;3.65;3.45;;;5.40;99.90;;;;;;5040986;28;20309;-72
2024/02/26 03:30:24;;;;;;;3.83;3.63;;;5.50;99.90;;;;;;5040840;28;20230;-72
2024/02/26 03:32:51;;;;;;;3.90;3.65;;;5.50;99.90;;;;;;5040927;28;20304;-72
2024/02/26 03:35:18;;;;;;;4.00;3.75;;;5.50;99.90;;;;;;5040606;28;20745;-72
2024/02/26 03:37:46;;;;;;;3.88;3.58;;;5.50;99.90;;;;;;5041790;28;20257;-73
2024/02/26 03:40:14;;;;;;;3.50;3.30;;;5.50;99.90;;;;;;5040848;28;20254;-71
2024/02/26 03:42:41;;;;;;;3.97;3.75;;;5.40;99.90;;;;;;5041221;28;20881;-71
2024/02/26 03:45:09;;;;;;;3.60;3.40;;;5.40;99.90;;;;;;5041467;28;20733;-71
2024/02/26 03:47:38;;;;;;;3.63;3.42;;;5.40;99.90;;;;;;5039048;28;20226;-72
2024/02/26 03:50:06;;;;;;;4.32;4.03;;;5.40;99.90;;;;;;5039740;28;20246;-71
2024/02/26 03:52:34;;;;;;;4.10;3.90;;;5.40;99.90;;;;;;5037910;28;20234;-73
2024/02/26 03:55:01;;;;;;;4.80;4.40;;;5.30;99.90;;;;;;5041668;28;20262;-72
2024/02/26 03:57:28;;;;;;;4.25;3.90;;;5.30;99.90;;;;;;5042107;28;20222;-71
2024/02/26 03:59:54;;;;;;;5.03;4.72;;;5.20;99.90;;;;;;5039687;28;20254;-71
2024/02/26 04:02:22;;;;;;;4.50;4.20;;;5.30;99.90;;;;;;5040213;28;20234;-71
2024/02/26 04:04:51;;;;;;;4.28;3.97;;;5.20;99.90;;;;;;5040164;28;20682;-71
2024/02/26 04:07:18;;;;;;;4.55;4.15;;;5.20;99.90;;;;;;5038444;28;22175;-73
2024/02/26 04:09:45;;;;;;;4.28;3.97;;;5.20;99.90;;;;;;5036018;28;20795;-71
2024/02/26 04:12:12;;;;;;;4.15;3.85;;;5.20;99.90;;;;;;5040312;28;20302;-72
2024/02/26 04:14:39;;;;;;;4.38;4.07;;;5.30;99.90;;;;;;5040706;28;20226;-71
2024/02/26 04:17:06;;;;;;;4.35;4.05;;;5.20;99.90;;;;;;5038001;28;20299;-71
2024/02/26 04:19:33;;;;;;;4.03;3.72;;;5.20;99.90;;;;;;5041833;28;20246;-73
2024/02/26 04:22:03;;;;;;;4.53;4.20;;;5.20;99.90;;;;;;5038842;28;20322;-71
2024/02/26 04:24:30;;;;;;;4.30;4.00;;;5.20;99.90;;;;;;5039004;28;20309;-71
2024/02/26 04:26:57;;;;;;;4.53;4.22;;;5.20;99.90;;;;;;5037666;28;20227;-73
2024/02/26 04:29:24;;;;;;;4.85;4.55;;;5.20;99.90;;;;;;5041899;28;20725;-72
2024/02/26 04:31:51;;;;;;;3.70;3.40;;;5.20;99.90;;;;;;5038456;28;20348;-71
2024/02/26 04:34:18;;;;;;;4.57;4.20;;;5.30;99.90;;;;;;5037877;28;20305;-73
2024/02/26 04:36:44;;;;;;;3.90;3.70;;;5.20;99.90;;;;;;5039349;28;20333;-72
2024/02/26 04:39:13;;;;;;;3.88;3.58;;;5.20;99.90;;;;;;5037997;28;20280;-71
2024/02/26 04:41:40;;;;;;;4.57;4.28;;;5.20;99.90;;;;;;5040268;28;20763;-71
2024/02/26 04:44:07;;;;;;;4.60;4.20;;;5.20;99.90;;;;;;5038202;28;20302;-71
2024/02/26 04:46:34;;;;;;;4.20;3.90;;;5.20;99.90;;;;;;5041071;28;20234;-73
2024/02/26 04:49:01;;;;;;;4.30;4.00;;;5.20;99.90;;;;;;5039142;28;20252;-72
2024/02/26 04:51:28;;;;;;;3.75;3.55;;;5.20;99.90;;;;;;5036821;28;20247;-72
2024/02/26 04:53:55;;;;;;;4.40;4.10;;;5.20;99.90;;;;;;5038627;28;20640;-70
2024/02/26 04:56:23;;;;;;;4.00;3.70;;;5.20;99.90;;;;;;5040145;28;20266;-73
2024/02/26 04:58:50;;;;;;;4.57;4.18;;;5.20;99.90;;;;;;5036887;28;20364;-71
2024/02/26 05:01:18;;;;;;;4.32;4.03;;;5.20;99.90;;;;;;5035679;28;21045;-73
2024/02/26 05:03:45;;;;;;;4.55;4.18;;;5.30;99.90;;;;;;5039394;28;20223;-71
2024/02/26 05:06:12;;;;;;;4.30;4.00;;;5.20;99.90;;;;;;5041076;28;20262;-71
2024/02/26 05:08:39;;;;;;;4.20;4.00;;;5.30;99.90;;;;;;5039291;28;20223;-71
2024/02/26 05:11:06;;;;;;;6.43;4.22;;;5.30;99.90;;;;;;5039183;28;20230;-71
2024/02/26 05:13:34;;;;;;;3.92;3.63;;;5.30;99.90;;;;;;5038875;28;20323;-72
2024/02/26 05:16:02;;;;;;;3.92;3.63;;;5.30;99.90;;;;;;5040803;28;20285;-71
2024/02/26 05:18:30;;;;;;;4.32;3.70;;;5.30;99.90;;;;;;5040484;28;20219;-71
2024/02/26 05:20:57;;;;;;;3.97;3.67;;;5.30;99.90;;;;;;5038577;28;20332;-72
2024/02/26 05:23:24;;;;;;;3.95;3.70;;;5.30;99.90;;;;;;5039951;28;20576;-71
2024/02/26 05:25:50;;;;;;;3.92;3.70;;;5.30;99.90;;;;;;5039838;28;20281;-73
2024/02/26 05:28:20;;;;;;;4.10;3.90;;;5.30;99.90;;;;;;5039231;28;20859;-73
2024/02/26 05:30:48;;;;;;;4.03;3.72;;;5.30;99.90;;;;;;5038875;28;20199;-72
2024/02/26 05:33:15;;;;;;;3.67;3.47;;;5.30;99.90;;;;;;5039166;28;20317;-72
2024/02/26 05:35:42;;;;;;;4.20;3.90;;;5.40;99.90;;;;;;5039998;28;20725;-72
2024/02/26 05:38:09;;;;;;;4.13;3.88;;;5.40;99.90;;;;;;5039178;28;20250;-71
2024/02/26 05:40:36;;;;;;;3.72;3.53;;;5.40;99.90;;;;;;5037466;28;20203;-74
2024/02/26 05:43:03;;;;;;;4.30;4.00;;;5.40;99.90;;;;;;5035331;28;20294;-71
2024/02/26 05:45:30;;;;;;;3.70;3.50;;;5.40;99.90;;;;;;5037496;28;20364;-72
2024/02/26 05:47:58;;;;;;;3.83;3.53;;;5.40;99.90;;;;;;5034771;28;20349;-72
2024/02/26 05:50:25;;;;;;;3.85;3.65;;;5.40;99.90;;;;;;5036893;28;20295;-71
2024/02/26 05:52:52;;;;;;;4.93;4.43;;;5.40;99.90;;;;;;5036505;28;20235;-71
2024/02/26 05:55:19;;;;;;;5.05;4.75;;;5.40;99.90;;;;;;5037343;28;20305;-72
2024/02/26 05:57:46;;;;;;;4.85;4.45;;;5.40;99.90;;;;;;5038331;28;20319;-71
2024/02/26 06:00:14;;;;;;;4.82;4.43;;;5.40;99.90;;;;;;5037059;28;20305;-73
2024/02/26 06:02:41;;;;;;;4.40;4.10;;;5.40;99.90;;;;;;5036072;28;20257;-72
2024/02/26 06:05:10;;;;;;;4.25;3.95;;;5.40;99.90;;;;;;5036631;28;20262;-72
2024/02/26 06:07:36;;;;;;;4.15;3.85;;;5.40;99.90;;;;;;5036988;28;20776;-72
2024/02/26 06:10:04;;;;;;;3.90;3.60;;;5.50;99.90;;;;;;5036172;28;20246;-73
2024/02/26 06:12:32;;;;;;;4.10;3.80;;;5.50;99.90;;;;;;5036884;28;20250;-72
2024/02/26 06:15:00;;;;;;;4.20;3.90;;;5.50;99.90;;;;;;5036936;28;20313;-71
2024/02/26 06:17:28;;;;;;;4.43;4.13;;;5.50;99.90;;;;;;5037137;28;20345;-72
2024/02/26 06:19:55;;;;;;;4.32;4.03;;;5.50;99.90;;;;;;5035274;28;20246;-71
2024/02/26 06:22:23;;;;;;;4.40;4.10;;;5.50;99.90;;;;;;5035724;28;20940;-73
2024/02/26 06:24:50;;;;;;;4.38;4.07;;;5.50;99.90;;;;;;5037831;28;20318;-73
2024/02/26 06:27:17;;;;;;;4.13;3.85;;;5.50;99.90;;;;;;5035887;28;20305;-72
2024/02/26 06:29:44;;;;;;;4.20;3.90;;;5.40;99.90;;;;;;5038203;28;20314;-72
2024/02/26 06:32:11;;;;;;;4.25;3.95;;;5.40;99.90;;;;;;5035818;28;20309;-71
2024/02/26 06:34:40;;;;;;;3.60;3.40;;;5.40;99.90;;;;;;5036921;28;20247;-68
2024/02/26 06:37:08;;;;;;;4.32;4.03;;;5.50;99.90;;;;;;5033562;28;20808;-69
2024/02/26 06:39:37;;;;;;;3.42;3.22;;;5.60;99.90;;;;;;5036589;28;20313;-69
2024/02/26 06:42:05;;;;;;;3.95;3.65;;;5.60;99.90;;;;;;5035573;28;20223;-69
2024/02/26 06:44:32;;;;;;;4.40;4.00;;;5.60;99.90;;;;;;5040702;28;20223;-69
2024/02/26 06:47:00;;;;;;;4.28;3.97;;;5.60;99.90;;;;;;5044105;28;20253;-70
2024/02/26 06:49:27;;;;;;;4.70;4.30;;;5.60;99.90;;;;;;5046748;28;20252;-69
2024/02/26 06:51:54;;;;;;;4.55;4.25;;;5.50;99.90;;;;;;5032148;28;20214;-68
2024/02/26 06:54:21;;;;;;;4.60;4.20;;;5.50;99.90;;;;;;5036549;28;20243;-69
2024/02/26 06:56:50;;;;;;;4.30;4.00;;;5.50;99.90;;;;;;5036276;28;20774;-73
2024/02/26 06:59:17;;;;;;;4.65;4.35;;;5.50;99.90;;;;;;5036337;28;20241;-71
2024/02/26 07:01:44;;;;;;;4.32;3.92;;;5.50;99.90;;;;;;5039769;28;20316;-71
2024/02/26 07:04:11;;;;;;;4.40;4.10;;;5.50;99.90;;;;;;5037034;28;20258;-69
2024/02/26 07:06:38;;;;;;;4.00;3.80;;;5.50;99.90;;;;;;5038715;28;20225;-71
2024/02/26 07:09:05;;;;;;;3.80;3.60;;;5.60;99.90;;;;;;5040167;28;20667;-70
2024/02/26 07:11:32;;;;;;;3.85;3.65;;;5.60;99.90;;;;;;5036544;28;20284;-69
2024/02/26 07:14:01;;;;;;;4.18;3.88;;;5.60;99.90;;;;;;5038850;28;20321;-71
2024/02/26 07:16:28;;;;;;;3.95;3.75;;;5.70;99.90;;;;;;5038257;28;20230;-72
2024/02/26 07:18:55;;;;;;;3.65;3.45;;;5.70;99.90;;;;;;5039305;28;20250;-70
2024/02/26 07:21:21;;;;;;;4.25;3.97;;;5.70;99.90;;;;;;5041054;28;21015;-71
2024/02/26 07:23:48;;;;;;;4.10;3.90;;;5.70;99.90;;;;;;5039768;28;20250;-70
2024/02/26 07:26:17;;;;;;;3.70;3.42;;;5.70;99.90;;;;;;5038423;28;20266;-70
2024/02/26 07:28:44;;;;;;;3.75;3.50;;;5.70;99.90;;;;;;5039816;28;20773;-71
2024/02/26 07:31:12;;;;;;;3.85;3.65;;;5.80;99.90;;;;;;5036076;28;20679;-70
2024/02/26 07:33:39;;;;;;;4.00;3.70;;;5.80;99.90;;;;;;5039371;28;20256;-71
2024/02/26 07:36:06;;;;;;;3.78;3.58;;;5.80;99.90;;;;;;5040459;28;20815;-70
2024/02/26 07:38:33;;;;;;;4.15;3.85;;;5.80;99.90;;;;;;5037636;28;20296;-71
2024/02/26 07:41:02;;;;;;;4.82;4.43;;;5.80;99.90;;;;;;5039726;28;20227;-72
2024/02/26 07:43:29;;;;;;;4.30;4.00;;;5.80;99.90;;;;;;5040895;28;20704;-70
2024/02/26 07:45:56;;;;;;;4.20;3.90;;;5.70;99.90;;;;;;5038480;28;20250;-71
2024/02/26 07:48:24;;;;;;;4.70;4.40;;;5.80;99.90;;;;;;5037265;28;20242;-72
2024/02/26 07:50:51;;;;;;;4.82;4.53;;;5.80;99.90;;;;;;5040582;28;20316;-70
2024/02/26 07:53:18;;;;;;;5.25;4.85;;;5.80;99.90;;;;;;5039223;28;20257;-71
2024/02/26 07:55:45;;;;;;;4.93;4.63;;;5.80;99.90;;;;;;5040659;28;20325;-70
2024/02/26 07:58:12;;;;;;;4.78;4.47;;;5.70;99.90;;;;;;5037551;28;20218;-70
2024/02/26 08:00:39;;;;;;;4.50;4.20;;;5.80;99.90;;;;;;5036622;28;20230;-70
2024/02/26 08:03:06;;;;;;;5.10;4.70;;;5.80;99.90;;;;;;5035165;28;20413;-70
2024/02/26 08:05:34;;;;;;;5.10;4.70;;;5.70;99.90;;;;;;5040254;28;20261;-70
2024/02/26 08:08:01;;;;;;;4.88;4.53;;;5.70;99.90;;;;;;5039660;28;20242;-71
2024/02/26 08:10:28;;;;;;;5.68;5.18;;;5.70;99.90;;;;;;5037772;28;20272;-70
2024/02/26 08:12:55;;;;;;;5.55;5.03;;;5.70;99.90;;;;;;5036829;28;20309;-71
2024/02/26 08:15:22;;;;;;;5.70;5.30;;;5.70;99.90;;;;;;5037762;28;20911;-70
2024/02/26 08:17:49;;;;;;;7.40;6.72;;;5.70;99.90;;;;;;5037129;28;20217;-71
2024/02/26 08:20:16;;;;;;;7.20;6.53;;;5.60;99.90;;;;;;5017459;28;20227;-70
2024/02/26 08:22:44;;;;;;;7.00;6.40;;;5.70;99.90;;;;;;5019445;28;20309;-70
2024/02/26 08:25:11;;;;;;;5.88;5.43;;;5.80;99.90;;;;;;5032526;28;20963;-71
2024/02/26 08:27:39;;;;;;;6.10;5.60;;;5.80;99.90;;;;;;5034331;28;20246;-71
2024/02/26 08:30:07;;;;;;;6.50;5.90;;;6.00;99.90;;;;;;5033750;28;20298;-72
2024/02/26 08:32:34;;;;;;;6.70;6.10;;;6.00;99.90;;;;;;5037545;28;20295;-69
2024/02/26 08:35:01;;;;;;;6.88;6.28;;;6.10;99.90;;;;;;5037493;28;20632;-74
2024/02/26 08:37:28;;;;;;;6.07;5.55;;;6.20;99.90;;;;;;5036090;28;20280;-72
2024/02/26 08:39:56;;;;;;;6.10;5.60;;;6.30;99.90;;;;;;5038309;28;20273;-69
2024/02/26 08:42:24;;;;;;;6.15;5.65;;;6.30;99.90;;;;;;5033064;28;20502;-69
2024/02/26 08:44:51;;;;;;;6.78;6.07;;;6.40;99.90;;;;;;5037222;28;20230;-70
2024/02/26 08:47:18;;;;;;;6.72;6.13;;;6.40;99.90;;;;;;5036478;28;20301;-70
2024/02/26 08:49:46;;;;;;;6.97;6.38;;;6.50;99.90;;;;;;5037794;28;20250;-72
2024/02/26 08:52:13;;;;;;;7.20;6.50;;;6.60;99.90;;;;;;5028735;28;20932;-71
2024/02/26 08:54:40;;;;;;;6.38;5.88;;;6.70;99.90;;;;;;5030972;28;20214;-71
2024/02/26 08:57:09;;;;;;;7.43;6.72;;;6.80;99.90;;;;;;5032967;28;20732;-75
2024/02/26 08:59:36;;;;;;;6.38;5.90;;;6.90;99.90;;;;;;5030163;28;20917;-71
2024/02/26 09:02:03;;;;;;;7.00;6.40;;;7.00;99.90;;;;;;5034931;28;20273;-73
2024/02/26 09:04:30;;;;;;;6.50;6.00;;;7.10;99.90;;;;;;5038541;28;20211;-72
2024/02/26 09:06:57;;;;;;;6.40;5.80;;;7.10;99.90;;;;;;5036470;28;20255;-73
2024/02/26 09:09:26;;;;;;;6.93;6.35;;;7.10;99.90;;;;;;5037930;28;20258;-71
2024/02/26 09:11:54;;;;;;;7.68;6.90;;;7.10;99.90;;;;;;5036588;28;20313;-73
2024/02/26 09:14:23;;;;;;;6.13;5.63;;;7.20;99.90;;;;;;5037681;28;20214;-73
2024/02/26 09:16:50;;;;;;;5.95;5.45;;;7.30;99.90;;;;;;5034787;28;20326;-74
2024/02/26 09:19:16;;;;;;;6.20;5.72;;;7.40;99.90;;;;;;5035230;28;20246;-71
2024/02/26 09:21:44;;;;;;;6.32;5.72;;;7.40;99.90;;;;;;5033061;28;20312;-73
2024/02/26 09:24:11;;;;;;;5.25;4.80;;;7.50;99.90;;;;;;5035674;28;20887;-72
2024/02/26 09:26:38;;;;;;;5.55;5.05;;;7.50;99.90;;;;;;5036843;28;20222;-75
2024/02/26 09:29:07;;;;;;;6.07;5.57;;;7.70;99.90;;;;;;5031576;28;20649;-75
2024/02/26 09:31:35;;;;;;;5.18;4.78;;;7.80;99.90;;;;;;5036618;28;20301;-73
2024/02/26 09:34:02;;;;;;;4.82;4.53;;;7.90;99.90;;;;;;5035923;28;20250;-72
2024/02/26 09:36:29;;;;;;;5.25;4.85;;;8.10;99.90;;;;;;5034690;28;20287;-71
2024/02/26 09:38:55;;;;;;;5.65;5.25;;;8.20;99.90;;;;;;5037442;28;20273;-73
2024/02/26 09:41:22;;;;;;;4.82;4.45;;;8.20;99.90;;;;;;5035784;28;20241;-71
2024/02/26 09:43:56;;;;;;;4.72;4.43;;;8.40;99.90;;;;;;5036410;28;20281;-73
2024/02/26 09:46:24;;;;;;;5.10;4.40;;;8.50;99.90;;;;;;5034728;28;20226;-73
2024/02/26 09:48:52;;;;;;;5.05;4.57;;;8.50;99.90;;;;;;5033849;28;20254;-73
2024/02/26 09:51:21;;;;;;;4.80;4.40;;;8.50;99.90;;;;;;5036563;28;20242;-73
2024/02/26 09:53:50;;;;;;;4.72;4.32;;;8.60;99.90;;;;;;5035571;28;20237;-74
2024/02/26 09:56:17;;;;;;;5.07;4.68;;;8.80;99.90;;;;;;5032707;28;20916;-71
2024/02/26 09:58:45;;;;;;;4.90;4.50;;;8.70;99.90;;;;;;5037291;28;20279;-74
2024/02/26 10:01:14;;;;;;;4.43;4.13;;;8.60;99.90;;;;;;5032809;28;20221;-73
2024/02/26 10:03:44;;;;;;;4.65;4.25;;;8.60;99.90;;;;;;5036007;28;20311;-74
2024/02/26 10:06:13;;;;;;;5.05;4.65;;;8.70;99.90;;;;;;5038393;28;20237;-74
2024/02/26 10:08:40;;;;;;;4.90;4.50;;;9.10;99.90;;;;;;5040983;28;20250;-73
2024/02/26 10:11:09;;;;;;;5.35;4.95;;;9.50;99.90;;;;;;5038122;28;20242;-76
2024/02/26 10:13:36;;;;;;;5.20;4.63;;;9.50;99.90;;;;;;5037043;28;20222;-73
2024/02/26 10:16:06;;;;;;;4.50;4.20;;;9.50;99.90;;;;;;5036041;28;21040;-72
2024/02/26 10:18:46;;;;;;;5.22;4.82;;;9.40;99.90;;;;;;5035367;28;20306;-75
2024/02/26 10:21:17;;;;;;;4.65;4.25;;;9.30;99.90;;;;;;5035337;28;20685;-77
2024/02/26 10:23:44;;;;;;;5.53;4.13;;;9.10;99.90;;;;;;5039301;28;20314;-76
2024/02/26 10:26:13;;;;;;;4.40;4.00;;;9.00;99.90;;;;;;5039723;28;20337;-75
2024/02/26 10:28:40;;;;;;;4.20;3.90;;;9.00;99.90;;;;;;5039454;28;20345;-75
2024/02/26 10:31:08;;;;;;;4.38;4.07;;;9.10;99.90;;;;;;5029866;28;20779;-77
2024/02/26 10:33:37;;;;;;;4.07;3.78;;;9.20;99.90;;;;;;5018366;28;20246;-73
2024/02/26 10:36:05;;;;;;;4.15;3.78;;;9.20;99.90;;;;;;5017436;28;20246;-75
2024/02/26 10:38:33;;;;;;;3.95;3.65;;;9.10;99.90;;;;;;5014859;28;20231;-76
2024/02/26 10:41:00;;;;;;;4.28;3.97;;;9.10;99.90;;;;;;5015614;28;20341;-76
2024/02/26 10:43:27;;;;;;;4.57;4.18;;;9.00;99.90;;;;;;5027701;28;21095;-74
2024/02/26 10:45:56;;;;;;;4.35;4.03;;;9.00;99.90;;;;;;5034542;28;20242;-73
2024/02/26 10:48:23;;;;;;;4.63;4.15;;;8.80;99.90;;;;;;5039849;28;20292;-74
2024/02/26 10:50:51;;;;;;;4.30;4.00;;;8.70;99.90;;;;;;5039199;28;20392;-73
2024/02/26 10:53:20;;;;;;;4.85;4.38;;;8.60;99.90;;;;;;5037350;28;20226;-74
2024/02/26 10:55:51;;;;;;;4.00;3.75;;;8.60;99.90;;;;;;5039786;28;20780;-74
2024/02/26 10:58:19;;;;;;;4.93;3.50;;;8.50;99.90;;;;;;5037983;28;21004;-74
2024/02/26 11:00:48;;;;;;;3.67;3.47;;;8.50;99.90;;;;;;5037566;28;20677;-74
2024/02/26 11:03:17;;;;;;;4.15;3.85;;;8.60;99.90;;;;;;5039197;28;20225;-77
2024/02/26 11:05:45;;;;;;;4.57;4.18;;;8.70;99.90;;;;;;5038732;28;20227;-77
2024/02/26 11:08:13;;;;;;;4.63;4.30;;;8.70;99.90;;;;;;5035858;28;20223;-74
2024/02/26 11:10:41;;;;;;;4.65;4.22;;;8.70;99.90;;;;;;5040017;28;20315;-73
2024/02/26 11:13:13;;;;;;;4.80;4.38;;;8.60;99.90;;;;;;5039741;28;20318;-71
2024/02/26 11:15:41;;;;;;;4.55;4.15;;;8.50;99.90;;;;;;5040478;28;21055;-72
2024/02/26 11:18:09;;;;;;;4.03;3.72;;;8.40;99.90;;;;;;5039271;28;20861;-73
2024/02/26 11:20:41;;;;;;;3.92;3.53;;;8.40;99.90;;;;;;5039543;28;20195;-73
2024/02/26 11:23:09;;;;;;;4.40;4.10;;;8.40;99.90;;;;;;5040639;28;20444;-71
2024/02/26 11:25:39;;;;;;;4.15;3.85;;;8.30;99.90;;;;;;5036888;28;20219;-75
2024/02/26 11:28:09;;;;;;;3.83;3.53;;;8.20;99.90;;;;;;5039588;28;20238;-74
2024/02/26 11:30:42;;;;;;;4.10;3.80;;;8.20;99.90;;;;;;5037754;28;20302;-76
2024/02/26 11:33:09;;;;;;;3.95;3.65;;;8.10;99.90;;;;;;5040668;28;20250;-71
2024/02/26 11:35:37;;;;;;;3.78;3.53;;;8.10;99.90;;;;;;5038517;28;20255;-72
2024/02/26 11:38:07;;;;;;;4.07;3.78;;;8.10;99.90;;;;;;5038802;28;20275;-73
2024/02/26 11:40:39;;;;;;;4.30;4.00;;;8.00;99.90;;;;;;5037998;28;20235;-72
2024/02/26 11:43:10;;;;;;;3.83;3.53;;;8.10;99.90;;;;;;5037364;28;20225;-75
2024/02/26 11:45:53;;;;;;;4.32;3.92;;;8.00;99.90;;;;;;5039706;28;20317;-71
2024/02/26 11:48:24;;;;;;;4.07;3.75;;;8.10;99.90;;;;;;5037852;28;20259;-74
2024/02/26 11:50:53;;;;;;;4.05;3.70;;;8.20;99.90;;;;;;5036604;28;20214;-73
2024/02/26 11:53:27;;;;;;;3.22;3.03;;;8.30;99.90;;;;;;5038202;28;20219;-73
2024/02/26 11:56:22;;;;;;;4.60;3.75;;;8.30;99.90;;;;;;5037362;28;20266;-74
2024/02/26 11:58:55;;;;;;;3.50;3.30;;;8.30;99.90;;;;;;5039243;28;20426;-75
2024/02/26 12:01:41;;;;;;;3.78;3.47;;;8.40;99.90;;;;;;5037457;28;20298;-75
2024/02/26 12:04:12;;;;;;;4.15;3.85;;;8.50;99.90;;;;;;5037852;28;20254;-72
2024/02/26 12:06:59;;;;;;;4.13;3.83;;;8.40;99.90;;;;;;5039723;28;20246;-71
2024/02/26 12:09:32;;;;;;;3.60;3.40;;;8.30;99.90;;;;;;5038669;28;20288;-72
2024/02/26 12:12:01;;;;;;;3.88;3.58;;;8.20;99.90;;;;;;5035929;28;20231;-73
2024/02/26 12:14:30;;;;;;;4.10;3.80;;;8.20;99.90;;;;;;5035555;28;20251;-72
2024/02/26 12:16:58;;;;;;;5.97;4.30;;;8.20;99.90;;;;;;5037338;28;20869;-73
2024/02/26 12:19:25;;;;;;;4.95;4.45;;;8.20;99.90;;;;;;5039939;28;20219;-75
2024/02/26 12:21:54;;;;;;;5.05;4.65;;;8.20;99.90;;;;;;5038693;28;20597;-73
2024/02/26 12:24:22;;;;;;;4.57;4.10;;;8.30;99.90;;;;;;5036756;28;20219;-72
2024/02/26 12:26:49;;;;;;;4.25;3.70;;;8.30;99.90;;;;;;5037739;28;20226;-76
2024/02/26 12:29:16;;;;;;;3.80;3.50;;;8.30;99.90;;;;;;5038890;28;20369;-74
2024/02/26 12:31:45;;;;;;;3.67;3.38;;;8.20;99.90;;;;;;5035352;28;20304;-71
2024/02/26 12:34:12;;;;;;;4.65;4.25;;;8.30;99.90;;;;;;5035948;28;20542;-72
2024/02/26 12:36:40;;;;;;;3.97;3.55;;;8.30;99.90;;;;;;5037895;28;20324;-74
2024/02/26 12:39:09;;;;;;;4.07;3.83;;;8.40;99.90;;;;;;5036395;28;20218;-75
2024/02/26 12:41:36;;;;;;;3.42;3.22;;;8.30;99.90;;;;;;5032397;28;20239;-73
2024/02/26 12:44:03;;;;;;;5.25;4.68;;;8.30;99.90;;;;;;5036264;28;20308;-74
2024/02/26 12:46:30;;;;;;;4.57;4.18;;;8.30;99.90;;;;;;5036443;28;20866;-75
2024/02/26 12:48:59;;;;;;;4.25;3.95;;;8.20;99.90;;;;;;5037545;28;20237;-72
2024/02/26 12:51:27;;;;;;;5.55;5.15;;;8.20;99.90;;;;;;5033238;28;20321;-73
2024/02/26 12:53:54;;;;;;;5.05;4.45;;;8.20;99.90;;;;;;5035067;28;20219;-74
2024/02/26 12:56:22;;;;;;;4.85;4.47;;;8.10;99.90;;;;;;5036612;28;20254;-73
2024/02/26 12:58:52;;;;;;;4.72;4.43;;;8.10;99.90;;;;;;5035993;28;20254;-73
2024/02/26 13:01:24;;;;;;;4.43;4.13;;;8.00;99.90;;;;;;5033580;28;20334;-73